createdAt,value
2018-09-24T00:00:43.282Z,87.50
2018-09-24T00:01:43.273Z,56.70
2018-09-24T00:02:43.796Z,64.50
2018-09-24T00:03:43.260Z,41.60
2018-09-24T00:04:43.244Z,64.50
2018-09-24T00:05:43.227Z,71.20
2018-09-24T00:06:43.252Z,71.90
2018-09-24T00:07:43.207Z,62.30
2018-09-24T00:08:43.235Z,66.10
2018-09-24T00:09:43.183Z,51.50
2018-09-24T00:10:43.169Z,39.50
2018-09-24T00:11:43.174Z,65.30
2018-09-24T00:12:43.145Z,46.80
2018-09-24T00:13:43.161Z,46.30
2018-09-24T00:14:43.127Z,47.10
2018-09-24T00:15:43.120Z,45.00
2018-09-24T00:16:43.110Z,44.20
2018-09-24T00:17:43.094Z,43.10
2018-09-24T00:18:43.085Z,54.40
2018-09-24T00:19:43.093Z,45.50
2018-09-24T00:20:43.066Z,47.70
2018-09-24T00:21:43.057Z,47.20
2018-09-24T00:22:43.059Z,35.90
2018-09-24T00:23:43.031Z,43.60
2018-09-24T00:24:43.026Z,44.50
2018-09-24T00:25:43.007Z,42.20
2018-09-24T00:26:42.999Z,39.60
2018-09-24T00:27:44.154Z,37.20
2018-09-24T00:28:43.038Z,38.80
2018-09-24T00:29:42.966Z,34.60
2018-09-24T00:30:43.164Z,65.10
2018-09-24T00:31:42.941Z,39.70
2018-09-24T00:32:42.936Z,42.80
2018-09-24T00:33:42.941Z,51.80
2018-09-24T00:34:42.909Z,33.50
2018-09-24T00:35:42.897Z,40.10
2018-09-24T00:36:42.886Z,27.60
2018-09-24T00:37:42.897Z,31.20
2018-09-24T00:38:42.887Z,36.80
2018-09-24T00:39:42.863Z,33.10
2018-09-24T00:40:42.850Z,43.50
2018-09-24T00:41:42.909Z,35.20
2018-09-24T00:42:42.823Z,26.60
2018-09-24T00:43:42.811Z,37.40
2018-09-24T00:44:42.804Z,40.70
2018-09-24T00:45:42.791Z,39.00
2018-09-24T00:46:42.784Z,27.00
2018-09-24T00:47:42.791Z,30.50
2018-09-24T00:48:42.800Z,31.90
2018-09-24T00:49:42.747Z,31.60
2018-09-24T00:50:42.739Z,34.30
2018-09-24T00:51:42.731Z,34.30
2018-09-24T00:52:42.728Z,32.40
2018-09-24T00:53:42.725Z,26.70
2018-09-24T00:54:42.693Z,29.50
2018-09-24T00:55:42.759Z,34.40
2018-09-24T00:56:42.673Z,30.30
2018-09-24T00:57:42.664Z,30.30
2018-09-24T00:58:42.673Z,30.70
2018-09-24T00:59:42.653Z,34.40
2018-09-24T01:00:42.636Z,38.20
2018-09-24T01:01:42.621Z,35.40
2018-09-24T01:02:42.646Z,33.60
2018-09-24T01:03:42.595Z,40.50
2018-09-24T01:04:42.591Z,37.50
2018-09-24T01:05:42.587Z,30.50
2018-09-24T01:06:42.587Z,28.70
2018-09-24T01:07:42.551Z,51.40
2018-09-24T01:08:42.555Z,29.00
2018-09-24T01:09:42.557Z,31.70
2018-09-24T01:10:42.531Z,33.00
2018-09-24T01:11:42.518Z,24.20
2018-09-24T01:12:42.502Z,31.40
2018-09-24T01:13:42.520Z,29.80
2018-09-24T01:14:42.477Z,30.60
2018-09-24T01:15:42.467Z,32.80
2018-09-24T01:16:42.457Z,28.00
2018-09-24T01:17:42.447Z,30.70
2018-09-24T01:18:42.440Z,38.00
2018-09-24T01:19:42.452Z,28.40
2018-09-24T01:20:42.414Z,31.00
2018-09-24T01:21:42.402Z,36.00
2018-09-24T01:22:42.398Z,30.50
2018-09-24T01:23:42.383Z,29.50
2018-09-24T01:24:42.377Z,25.40
2018-09-24T01:25:42.384Z,31.70
2018-09-24T01:26:42.347Z,32.30
2018-09-24T01:27:42.341Z,32.00
2018-09-24T01:28:42.347Z,29.30
2018-09-24T01:29:42.323Z,27.80
2018-09-24T01:30:43.255Z,27.80
2018-09-24T01:31:42.348Z,29.10
2018-09-24T01:32:42.291Z,31.10
2018-09-24T01:33:42.276Z,33.10
2018-09-24T01:34:42.262Z,34.10
2018-09-24T01:35:42.252Z,33.90
2018-09-24T01:36:42.270Z,27.60
2018-09-24T01:37:42.232Z,35.00
2018-09-24T01:38:42.224Z,34.80
2018-09-24T01:39:42.206Z,30.10
2018-09-24T01:40:42.329Z,33.30
2018-09-24T01:41:42.186Z,41.20
2018-09-24T01:42:42.197Z,28.70
2018-09-24T01:43:42.189Z,30.20
2018-09-24T01:44:42.163Z,36.20
2018-09-24T01:45:42.147Z,31.10
2018-09-24T01:46:42.133Z,32.70
2018-09-24T01:47:42.142Z,32.90
2018-09-24T01:48:42.135Z,30.40
2018-09-24T01:49:42.102Z,36.90
2018-09-24T01:50:42.119Z,23.70
2018-09-24T01:51:42.085Z,26.00
2018-09-24T01:52:42.074Z,28.90
2018-09-24T01:53:42.059Z,27.90
2018-09-24T01:54:42.088Z,24.10
2018-09-24T01:55:42.055Z,27.70
2018-09-24T01:56:42.032Z,27.50
2018-09-24T01:57:42.031Z,37.90
2018-09-24T01:58:42.032Z,29.90
2018-09-24T01:59:41.993Z,40.40
2018-09-24T02:00:41.994Z,27.10
2018-09-24T02:01:41.973Z,28.30
2018-09-24T02:02:41.965Z,27.10
2018-09-24T02:03:41.956Z,22.20
2018-09-24T02:04:41.994Z,28.30
2018-09-24T02:05:42.056Z,25.90
2018-09-24T02:06:41.920Z,26.30
2018-09-24T02:07:41.914Z,23.10
2018-09-24T02:08:41.901Z,21.00
2018-09-24T02:09:41.891Z,25.00
2018-09-24T02:10:41.896Z,28.10
2018-09-24T02:11:41.864Z,29.60
2018-09-24T02:12:41.860Z,20.40
2018-09-24T02:13:41.872Z,21.70
2018-09-24T02:14:41.835Z,34.40
2018-09-24T02:15:41.826Z,25.10
2018-09-24T02:16:41.819Z,27.10
2018-09-24T02:17:41.803Z,20.20
2018-09-24T02:18:41.794Z,22.10
2018-09-24T02:19:41.802Z,28.00
2018-09-24T02:20:41.766Z,20.90
2018-09-24T02:21:41.758Z,41.70
2018-09-24T02:22:41.752Z,31.30
2018-09-24T02:23:41.741Z,24.40
2018-09-24T02:24:41.727Z,26.60
2018-09-24T02:25:41.768Z,24.40
2018-09-24T02:26:41.765Z,23.70
2018-09-24T02:27:41.697Z,24.10
2018-09-24T02:28:41.688Z,25.20
2018-09-24T02:29:41.836Z,22.50
2018-09-24T02:30:41.670Z,35.00
2018-09-24T02:31:41.682Z,27.80
2018-09-24T02:32:41.637Z,29.60
2018-09-24T02:33:41.659Z,34.20
2018-09-24T02:34:41.620Z,26.90
2018-09-24T02:35:41.611Z,25.40
2018-09-24T02:36:41.645Z,28.10
2018-09-24T02:37:41.588Z,25.90
2018-09-24T02:38:41.594Z,31.50
2018-09-24T02:39:41.562Z,32.30
2018-09-24T02:40:41.559Z,34.20
2018-09-24T02:41:41.549Z,29.00
2018-09-24T02:42:41.536Z,24.40
2018-09-24T02:43:41.557Z,30.90
2018-09-24T02:44:41.508Z,39.40
2018-09-24T02:45:41.509Z,30.00
2018-09-24T02:46:41.492Z,29.50
2018-09-24T02:47:41.493Z,24.30
2018-09-24T02:48:41.490Z,25.70
2018-09-24T02:49:41.481Z,27.70
2018-09-24T02:50:41.446Z,30.70
2018-09-24T02:51:41.432Z,28.40
2018-09-24T02:52:41.421Z,33.10
2018-09-24T02:53:41.413Z,30.90
2018-09-24T02:54:41.445Z,31.70
2018-09-24T02:55:41.420Z,27.70
2018-09-24T02:56:41.380Z,25.60
2018-09-24T02:57:41.369Z,29.40
2018-09-24T02:58:41.366Z,31.60
2018-09-24T02:59:41.356Z,33.60
2018-09-24T03:00:41.341Z,35.20
2018-09-24T03:01:41.364Z,38.90
2018-09-24T03:02:41.317Z,30.80
2018-09-24T03:03:41.303Z,27.40
2018-09-24T03:04:41.293Z,39.10
2018-09-24T03:05:41.284Z,39.50
2018-09-24T03:06:41.276Z,30.30
2018-09-24T03:07:41.287Z,31.20
2018-09-24T03:08:41.257Z,37.30
2018-09-24T03:09:41.261Z,33.80
2018-09-24T03:10:41.236Z,28.40
2018-09-24T03:11:41.264Z,28.20
2018-09-24T03:12:41.240Z,34.30
2018-09-24T03:13:41.198Z,27.70
2018-09-24T03:14:41.186Z,29.90
2018-09-24T03:15:41.174Z,29.10
2018-09-24T03:16:41.165Z,29.30
2018-09-24T03:17:41.156Z,29.80
2018-09-24T03:18:41.173Z,32.00
2018-09-24T03:19:41.145Z,35.70
2018-09-24T03:20:41.133Z,29.70
2018-09-24T03:21:41.114Z,29.60
2018-09-24T03:22:41.103Z,57.00
2018-09-24T03:23:41.091Z,34.10
2018-09-24T03:24:41.094Z,33.00
2018-09-24T03:25:41.096Z,29.60
2018-09-24T03:26:41.060Z,35.80
2018-09-24T03:27:41.052Z,30.40
2018-09-24T03:28:41.037Z,33.50
2018-09-24T03:29:41.056Z,36.20
2018-09-24T03:30:41.017Z,41.00
2018-09-24T03:31:41.030Z,41.10
2018-09-24T03:32:40.999Z,30.90
2018-09-24T03:33:40.985Z,34.50
2018-09-24T03:34:40.975Z,37.60
2018-09-24T03:35:40.983Z,34.60
2018-09-24T03:36:40.950Z,39.00
2018-09-24T03:37:40.939Z,43.70
2018-09-24T03:38:40.931Z,42.20
2018-09-24T03:39:40.923Z,36.20
2018-09-24T03:40:40.912Z,37.40
2018-09-24T03:41:40.968Z,42.90
2018-09-24T03:42:40.893Z,41.10
2018-09-24T03:43:41.150Z,35.80
2018-09-24T03:44:40.868Z,38.20
2018-09-24T03:45:40.857Z,33.60
2018-09-24T03:46:40.842Z,44.40
2018-09-24T03:47:40.830Z,39.50
2018-09-24T03:48:40.821Z,55.60
2018-09-24T03:49:40.839Z,52.80
2018-09-24T03:50:40.802Z,37.50
2018-09-24T03:51:40.795Z,30.80
2018-09-24T03:52:40.789Z,34.80
2018-09-24T03:53:40.795Z,51.70
2018-09-24T03:54:40.757Z,40.50
2018-09-24T03:55:40.759Z,29.70
2018-09-24T03:56:40.734Z,37.00
2018-09-24T03:57:40.744Z,39.40
2018-09-24T03:58:40.870Z,46.50
2018-09-24T03:59:40.732Z,34.30
2018-09-24T04:00:40.692Z,37.00
2018-09-24T04:01:40.682Z,36.80
2018-09-24T04:02:40.674Z,40.00
2018-09-24T04:03:40.666Z,66.90
2018-09-24T04:04:40.700Z,44.50
2018-09-24T04:05:40.642Z,43.60
2018-09-24T04:06:40.647Z,39.00
2018-09-24T04:07:40.615Z,30.80
2018-09-24T04:08:40.607Z,34.00
2018-09-24T04:09:40.695Z,37.70
2018-09-24T04:10:40.653Z,41.40
2018-09-24T04:11:40.581Z,36.60
2018-09-24T04:12:40.572Z,39.40
2018-09-24T04:13:40.556Z,34.80
2018-09-24T04:14:40.561Z,42.80
2018-09-24T04:15:40.548Z,34.70
2018-09-24T04:16:40.528Z,40.30
2018-09-24T04:17:40.517Z,38.00
2018-09-24T04:18:40.502Z,33.80
2018-09-24T04:19:40.558Z,33.00
2018-09-24T04:20:40.476Z,40.60
2018-09-24T04:21:40.477Z,35.90
2018-09-24T04:22:40.461Z,38.10
2018-09-24T04:23:40.451Z,52.70
2018-09-24T04:24:40.459Z,36.40
2018-09-24T04:25:40.427Z,38.60
2018-09-24T04:26:40.414Z,39.20
2018-09-24T04:27:40.408Z,43.50
2018-09-24T04:28:40.408Z,67.20
2018-09-24T04:29:40.403Z,65.20
2018-09-24T04:30:40.374Z,45.50
2018-09-24T04:31:40.367Z,40.20
2018-09-24T04:32:40.354Z,36.90
2018-09-24T04:33:40.340Z,30.80
2018-09-24T04:34:40.405Z,39.00
2018-09-24T04:35:40.374Z,47.50
2018-09-24T04:36:40.333Z,42.50
2018-09-24T04:37:40.299Z,38.70
2018-09-24T04:38:40.309Z,40.60
2018-09-24T04:39:40.304Z,73.30
2018-09-24T04:40:40.263Z,40.30
2018-09-24T04:41:40.254Z,44.40
2018-09-24T04:42:40.247Z,44.50
2018-09-24T04:43:40.256Z,43.20
2018-09-24T04:44:40.257Z,37.00
2018-09-24T04:45:40.253Z,45.20
2018-09-24T04:46:40.202Z,42.70
2018-09-24T04:47:40.311Z,39.40
2018-09-24T04:48:40.211Z,39.30
2018-09-24T04:49:40.190Z,43.70
2018-09-24T04:50:40.160Z,40.10
2018-09-24T04:51:40.149Z,39.20
2018-09-24T04:52:40.136Z,39.70
2018-09-24T04:53:40.131Z,38.80
2018-09-24T04:54:40.138Z,45.10
2018-09-24T04:55:40.113Z,39.80
2018-09-24T04:56:40.124Z,35.30
2018-09-24T04:57:40.089Z,39.20
2018-09-24T04:58:40.128Z,39.40
2018-09-24T04:59:40.066Z,43.90
2018-09-24T05:00:40.053Z,39.10
2018-09-24T05:01:40.059Z,40.20
2018-09-24T05:02:40.034Z,38.20
2018-09-24T05:03:40.035Z,39.40
2018-09-24T05:04:40.027Z,35.20
2018-09-24T05:05:40.017Z,37.40
2018-09-24T05:06:40.011Z,37.80
2018-09-24T05:07:39.987Z,39.00
2018-09-24T05:08:39.974Z,37.80
2018-09-24T05:09:39.963Z,34.40
2018-09-24T05:10:39.960Z,36.70
2018-09-24T05:11:39.971Z,30.60
2018-09-24T05:12:40.231Z,37.50
2018-09-24T05:13:39.914Z,41.70
2018-09-24T05:14:39.916Z,38.70
2018-09-24T05:15:39.901Z,33.30
2018-09-24T05:16:39.963Z,31.30
2018-09-24T05:17:39.874Z,37.90
2018-09-24T05:18:39.862Z,47.60
2018-09-24T05:19:39.850Z,36.10
2018-09-24T05:20:39.844Z,32.40
2018-09-24T05:21:39.851Z,43.60
2018-09-24T05:22:39.825Z,34.70
2018-09-24T05:23:39.872Z,32.80
2018-09-24T05:24:39.811Z,44.20
2018-09-24T05:25:39.825Z,34.50
2018-09-24T05:26:39.831Z,38.70
2018-09-24T05:27:39.785Z,34.00
2018-09-24T05:28:39.817Z,33.50
2018-09-24T05:29:39.787Z,53.70
2018-09-24T05:30:39.747Z,43.10
2018-09-24T05:31:39.750Z,39.80
2018-09-24T05:32:39.714Z,34.70
2018-09-24T05:33:39.750Z,34.30
2018-09-24T05:34:39.713Z,31.90
2018-09-24T05:35:39.679Z,34.90
2018-09-24T05:36:39.695Z,40.50
2018-09-24T05:37:39.676Z,29.30
2018-09-24T05:38:39.645Z,28.60
2018-09-24T05:39:39.643Z,39.20
2018-09-24T05:40:39.630Z,41.40
2018-09-24T05:41:39.615Z,33.90
2018-09-24T05:42:39.630Z,27.20
2018-09-24T05:43:39.597Z,32.40
2018-09-24T05:44:39.592Z,31.50
2018-09-24T05:45:39.609Z,28.20
2018-09-24T05:46:39.560Z,35.20
2018-09-24T05:47:39.575Z,32.30
2018-09-24T05:48:39.634Z,29.60
2018-09-24T05:49:39.531Z,27.70
2018-09-24T05:50:39.526Z,27.90
2018-09-24T05:51:39.543Z,35.70
2018-09-24T05:52:39.523Z,37.10
2018-09-24T05:53:39.490Z,31.20
2018-09-24T05:54:39.483Z,29.30
2018-09-24T05:55:39.472Z,31.70
2018-09-24T05:56:39.460Z,33.20
2018-09-24T05:57:39.474Z,29.00
2018-09-24T05:58:39.474Z,29.20
2018-09-24T05:59:39.447Z,28.10
2018-09-24T06:00:39.417Z,46.80
2018-09-24T06:01:39.405Z,29.80
2018-09-24T06:02:39.654Z,28.60
2018-09-24T06:03:39.386Z,22.70
2018-09-24T06:04:39.427Z,29.40
2018-09-24T06:05:39.364Z,26.60
2018-09-24T06:06:39.357Z,26.50
2018-09-24T06:07:39.368Z,28.10
2018-09-24T06:08:39.330Z,29.40
2018-09-24T06:09:39.326Z,22.60
2018-09-24T06:10:39.304Z,20.90
2018-09-24T06:11:39.301Z,23.30
2018-09-24T06:12:39.325Z,27.00
2018-09-24T06:13:39.553Z,25.30
2018-09-24T06:14:39.279Z,26.00
2018-09-24T06:15:39.266Z,23.60
2018-09-24T06:16:39.243Z,24.10
2018-09-24T06:17:39.235Z,26.70
2018-09-24T06:18:39.223Z,23.90
2018-09-24T06:19:39.226Z,20.20
2018-09-24T06:20:39.204Z,27.50
2018-09-24T06:21:39.186Z,24.30
2018-09-24T06:22:39.188Z,23.90
2018-09-24T06:23:39.188Z,22.20
2018-09-24T06:24:39.175Z,22.30
2018-09-24T06:25:39.142Z,24.30
2018-09-24T06:26:39.143Z,22.50
2018-09-24T06:27:39.150Z,20.50
2018-09-24T06:28:39.115Z,22.30
2018-09-24T06:29:39.123Z,22.20
2018-09-24T06:30:39.105Z,17.70
2018-09-24T06:31:39.085Z,22.30
2018-09-24T06:32:39.070Z,26.90
2018-09-24T06:33:39.075Z,19.60
2018-09-24T06:34:39.082Z,22.90
2018-09-24T06:35:39.044Z,20.50
2018-09-24T06:36:39.073Z,16.60
2018-09-24T06:37:39.023Z,23.80
2018-09-24T06:38:39.002Z,24.90
2018-09-24T06:39:38.995Z,17.30
2018-09-24T06:40:39.017Z,23.70
2018-09-24T06:41:38.981Z,18.40
2018-09-24T06:42:38.960Z,16.80
2018-09-24T06:43:38.953Z,23.80
2018-09-24T06:44:38.957Z,19.90
2018-09-24T06:45:38.940Z,20.30
2018-09-24T06:46:38.922Z,15.70
2018-09-24T06:47:38.912Z,18.40
2018-09-24T06:48:38.903Z,19.30
2018-09-24T06:49:38.976Z,21.30
2018-09-24T06:50:38.875Z,20.00
2018-09-24T06:51:38.864Z,20.30
2018-09-24T06:52:38.854Z,19.30
2018-09-24T06:53:38.848Z,15.10
2018-09-24T06:54:38.855Z,19.30
2018-09-24T06:55:38.831Z,17.20
2018-09-24T06:56:38.812Z,20.00
2018-09-24T06:57:38.800Z,21.50
2018-09-24T06:58:38.794Z,19.70
2018-09-24T06:59:38.865Z,18.40
2018-09-24T07:00:38.769Z,18.00
2018-09-24T07:01:38.761Z,15.30
2018-09-24T07:02:38.751Z,18.40
2018-09-24T07:03:38.767Z,14.30
2018-09-24T07:04:38.766Z,19.30
2018-09-24T07:05:38.754Z,17.50
2018-09-24T07:06:38.715Z,16.80
2018-09-24T07:07:38.697Z,19.60
2018-09-24T07:08:38.703Z,12.20
2018-09-24T07:09:38.714Z,19.90
2018-09-24T07:10:38.659Z,19.60
2018-09-24T07:11:38.649Z,19.20
2018-09-24T07:12:38.641Z,16.90
2018-09-24T07:13:38.636Z,17.60
2018-09-24T07:14:38.639Z,15.50
2018-09-24T07:15:38.606Z,15.80
2018-09-24T07:16:38.596Z,17.80
2018-09-24T07:17:38.583Z,18.10
2018-09-24T07:18:38.582Z,14.20
2018-09-24T07:19:38.567Z,16.50
2018-09-24T07:20:38.574Z,11.20
2018-09-24T07:21:38.546Z,13.90
2018-09-24T07:22:38.534Z,18.00
2018-09-24T07:23:38.532Z,15.80
2018-09-24T07:24:38.509Z,18.00
2018-09-24T07:25:38.545Z,15.40
2018-09-24T07:26:38.496Z,15.30
2018-09-24T07:27:38.525Z,14.10
2018-09-24T07:28:38.467Z,12.90
2018-09-24T07:29:38.453Z,19.40
2018-09-24T07:30:38.493Z,19.40
2018-09-24T07:31:38.436Z,11.80
2018-09-24T07:32:38.445Z,15.00
2018-09-24T07:33:38.451Z,12.30
2018-09-24T07:34:38.400Z,15.30
2018-09-24T07:35:38.415Z,14.60
2018-09-24T07:36:38.383Z,15.90
2018-09-24T07:37:38.384Z,13.20
2018-09-24T07:38:38.367Z,13.00
2018-09-24T07:39:38.371Z,13.00
2018-09-24T07:40:38.357Z,12.80
2018-09-24T07:41:38.338Z,14.00
2018-09-24T07:42:38.315Z,14.00
2018-09-24T07:43:38.308Z,13.60
2018-09-24T07:44:38.315Z,15.00
2018-09-24T07:45:38.298Z,14.40
2018-09-24T07:46:38.301Z,15.60
2018-09-24T07:47:38.262Z,14.60
2018-09-24T07:48:38.272Z,13.70
2018-09-24T07:49:38.258Z,19.10
2018-09-24T07:50:38.247Z,16.40
2018-09-24T07:51:38.285Z,12.60
2018-09-24T07:52:38.275Z,14.80
2018-09-24T07:53:38.237Z,15.00
2018-09-24T07:54:38.183Z,16.70
2018-09-24T07:55:38.241Z,13.50
2018-09-24T07:56:38.183Z,14.10
2018-09-24T07:57:38.156Z,11.80
2018-09-24T07:58:38.149Z,14.00
2018-09-24T07:59:38.133Z,14.00
2018-09-24T08:00:38.125Z,16.60
2018-09-24T08:01:38.136Z,12.60
2018-09-24T08:02:38.131Z,11.10
2018-09-24T08:03:38.090Z,14.70
2018-09-24T08:04:38.080Z,14.90
2018-09-24T08:05:38.075Z,14.10
2018-09-24T08:06:38.054Z,10.60
2018-09-24T08:07:38.122Z,12.70
2018-09-24T08:08:38.036Z,13.20
2018-09-24T08:09:38.024Z,12.70
2018-09-24T08:10:38.017Z,10.10
2018-09-24T08:11:38.011Z,13.90
2018-09-24T08:12:38.037Z,9.90
2018-09-24T08:13:37.984Z,13.40
2018-09-24T08:14:37.989Z,10.10
2018-09-24T08:15:37.958Z,13.30
2018-09-24T08:16:37.968Z,12.90
2018-09-24T08:17:37.992Z,13.90
2018-09-24T08:18:37.946Z,13.90
2018-09-24T08:19:37.943Z,14.50
2018-09-24T08:20:37.907Z,10.00
2018-09-24T08:21:37.910Z,11.90
2018-09-24T08:22:37.896Z,11.40
2018-09-24T08:23:37.882Z,13.30
2018-09-24T08:24:37.868Z,10.80
2018-09-24T08:25:37.872Z,11.20
2018-09-24T08:26:37.838Z,9.20
2018-09-24T08:27:37.829Z,13.30
2018-09-24T08:28:37.819Z,13.00
2018-09-24T08:29:37.810Z,9.30
2018-09-24T08:30:37.825Z,11.40
2018-09-24T08:31:37.788Z,12.00
2018-09-24T08:32:37.777Z,10.30
2018-09-24T08:33:37.775Z,11.90
2018-09-24T08:34:37.758Z,9.20
2018-09-24T08:35:37.772Z,11.90
2018-09-24T08:36:37.768Z,10.80
2018-09-24T08:37:37.738Z,10.10
2018-09-24T08:38:37.738Z,12.70
2018-09-24T08:39:37.699Z,11.20
2018-09-24T08:40:37.688Z,12.20
2018-09-24T08:41:37.676Z,11.10
2018-09-24T08:42:37.689Z,8.30
2018-09-24T08:43:37.664Z,10.70
2018-09-24T08:44:37.648Z,11.90
2018-09-24T08:45:37.638Z,11.90
2018-09-24T08:46:37.623Z,10.70
2018-09-24T08:47:37.640Z,11.10
2018-09-24T08:48:37.606Z,9.10
2018-09-24T08:49:37.603Z,9.90
2018-09-24T08:50:37.581Z,11.60
2018-09-24T08:51:37.571Z,7.30
2018-09-24T08:52:37.563Z,12.90
2018-09-24T08:53:37.565Z,11.20
2018-09-24T08:54:37.567Z,10.90
2018-09-24T08:55:37.529Z,11.70
2018-09-24T08:56:37.580Z,9.40
2018-09-24T08:57:37.510Z,9.90
2018-09-24T08:58:37.491Z,8.50
2018-09-24T08:59:37.507Z,7.70
2018-09-24T09:00:37.485Z,7.10
2018-09-24T09:01:37.459Z,9.10
2018-09-24T09:02:37.531Z,11.80
2018-09-24T09:03:37.446Z,9.70
2018-09-24T09:04:37.457Z,8.60
2018-09-24T09:05:37.434Z,9.40
2018-09-24T09:06:37.413Z,7.60
2018-09-24T09:07:37.419Z,10.30
2018-09-24T09:08:37.389Z,8.40
2018-09-24T09:09:37.380Z,7.50
2018-09-24T09:10:37.390Z,7.70
2018-09-24T09:11:37.381Z,8.10
2018-09-24T09:12:37.343Z,10.40
2018-09-24T09:13:37.329Z,8.60
2018-09-24T09:14:37.326Z,8.80
2018-09-24T09:15:37.325Z,7.60
2018-09-24T09:16:37.353Z,8.60
2018-09-24T09:17:37.295Z,10.90
2018-09-24T09:18:37.276Z,8.10
2018-09-24T09:19:37.277Z,8.60
2018-09-24T09:20:37.258Z,10.70
2018-09-24T09:21:37.270Z,9.60
2018-09-24T09:22:37.257Z,7.60
2018-09-24T09:23:37.239Z,8.40
2018-09-24T09:24:37.245Z,8.90
2018-09-24T09:25:37.213Z,7.50
2018-09-24T09:26:37.217Z,7.40
2018-09-24T09:27:37.182Z,7.00
2018-09-24T09:28:37.177Z,7.40
2018-09-24T09:29:37.164Z,7.60
2018-09-24T09:30:37.171Z,6.90
2018-09-24T09:31:37.135Z,7.00
2018-09-24T09:32:37.125Z,7.90
2018-09-24T09:33:37.114Z,7.40
2018-09-24T09:34:37.133Z,7.50
2018-09-24T09:35:37.133Z,6.10
2018-09-24T09:36:37.091Z,5.20
2018-09-24T09:37:37.068Z,6.30
2018-09-24T09:38:37.064Z,5.80
2018-09-24T09:39:37.057Z,7.10
2018-09-24T09:40:37.060Z,7.40
2018-09-24T09:41:37.032Z,7.90
2018-09-24T09:42:37.020Z,5.60
2018-09-24T09:43:37.005Z,8.60
2018-09-24T09:44:36.991Z,9.60
2018-09-24T09:45:37.010Z,5.80
2018-09-24T09:46:37.005Z,8.00
2018-09-24T09:47:36.970Z,4.70
2018-09-24T09:48:36.972Z,4.80
2018-09-24T09:49:36.942Z,8.00
2018-09-24T09:50:36.957Z,6.70
2018-09-24T09:51:36.952Z,7.20
2018-09-24T09:52:36.937Z,10.50
2018-09-24T09:53:36.963Z,6.80
2018-09-24T09:54:36.886Z,6.90
2018-09-24T09:55:36.954Z,6.20
2018-09-24T09:56:36.888Z,5.90
2018-09-24T09:57:36.873Z,5.90
2018-09-24T09:58:36.846Z,4.00
2018-09-24T09:59:36.835Z,4.80
2018-09-24T10:00:36.824Z,6.50
2018-09-24T10:01:36.828Z,5.20
2018-09-24T10:02:36.845Z,4.40
2018-09-24T10:03:36.784Z,8.40
2018-09-24T10:04:36.837Z,4.30
2018-09-24T10:05:36.764Z,5.70
2018-09-24T10:06:36.774Z,6.10
2018-09-24T10:07:36.765Z,6.40
2018-09-24T10:08:36.735Z,5.70
2018-09-24T10:09:36.730Z,5.70
2018-09-24T10:10:36.734Z,5.90
2018-09-24T10:11:36.909Z,5.60
2018-09-24T10:12:37.008Z,4.10
2018-09-24T10:13:36.708Z,5.00
2018-09-24T10:14:36.707Z,4.30
2018-09-24T10:15:36.673Z,5.50
2018-09-24T10:16:36.675Z,7.10
2018-09-24T10:17:36.644Z,4.70
2018-09-24T10:18:36.638Z,5.10
2018-09-24T10:19:36.622Z,4.40
2018-09-24T10:20:36.626Z,5.80
2018-09-24T10:21:36.626Z,4.80
2018-09-24T10:22:36.589Z,5.80
2018-09-24T10:23:36.567Z,4.10
2018-09-24T10:24:36.563Z,5.30
2018-09-24T10:25:36.560Z,4.40
2018-09-24T10:26:36.537Z,5.50
2018-09-24T10:27:36.595Z,5.90
2018-09-24T10:28:36.516Z,4.20
2018-09-24T10:29:36.505Z,5.20
2018-09-24T10:30:38.044Z,2.60
2018-09-24T10:31:36.489Z,4.30
2018-09-24T10:32:36.497Z,3.70
2018-09-24T10:33:36.473Z,5.20
2018-09-24T10:34:36.451Z,5.90
2018-09-24T10:35:36.466Z,5.20
2018-09-24T10:36:36.435Z,4.20
2018-09-24T10:37:36.472Z,5.60
2018-09-24T10:38:36.425Z,5.40
2018-09-24T10:39:36.426Z,5.50
2018-09-24T10:40:36.383Z,5.30
2018-09-24T10:41:36.391Z,4.50
2018-09-24T10:42:36.384Z,4.30
2018-09-24T10:43:36.360Z,5.00
2018-09-24T10:44:36.349Z,4.50
2018-09-24T10:45:36.335Z,3.60
2018-09-24T10:46:36.326Z,3.60
2018-09-24T10:47:36.326Z,5.10
2018-09-24T10:48:36.315Z,4.20
2018-09-24T10:49:36.292Z,5.40
2018-09-24T10:50:36.299Z,4.30
2018-09-24T10:51:36.278Z,4.50
2018-09-24T10:52:36.261Z,2.80
2018-09-24T10:53:36.267Z,3.00
2018-09-24T10:54:36.240Z,4.60
2018-09-24T10:55:36.223Z,2.70
2018-09-24T10:56:36.224Z,4.40
2018-09-24T10:57:36.206Z,4.00
2018-09-24T10:58:36.220Z,2.90
2018-09-24T10:59:36.207Z,3.40
2018-09-24T11:00:36.194Z,3.90
2018-09-24T11:01:36.169Z,3.30
2018-09-24T11:02:36.151Z,2.30
2018-09-24T11:03:36.159Z,4.10
2018-09-24T11:04:36.131Z,4.50
2018-09-24T11:05:36.118Z,2.90
2018-09-24T11:06:36.107Z,2.20
2018-09-24T11:07:36.101Z,2.50
2018-09-24T11:08:36.110Z,2.70
2018-09-24T11:09:36.076Z,3.20
2018-09-24T11:10:36.064Z,4.90
2018-09-24T11:11:36.059Z,3.40
2018-09-24T11:12:36.043Z,3.10
2018-09-24T11:13:36.051Z,3.00
2018-09-24T11:14:36.022Z,2.60
2018-09-24T11:15:36.075Z,2.90
2018-09-24T11:16:36.208Z,3.90
2018-09-24T11:17:36.209Z,4.20
2018-09-24T11:18:35.995Z,4.10
2018-09-24T11:19:35.962Z,3.10
2018-09-24T11:20:35.974Z,4.70
2018-09-24T11:21:35.975Z,3.20
2018-09-24T11:22:35.945Z,5.10
2018-09-24T11:23:35.946Z,3.10
2018-09-24T11:24:35.936Z,5.50
2018-09-24T11:25:35.925Z,4.20
2018-09-24T11:26:35.915Z,2.70
2018-09-24T11:27:35.877Z,4.00
2018-09-24T11:28:35.918Z,4.10
2018-09-24T11:29:35.915Z,5.40
2018-09-24T11:30:35.842Z,4.90
2018-09-24T11:31:35.833Z,4.70
2018-09-24T11:32:35.831Z,2.20
2018-09-24T11:33:35.813Z,5.40
2018-09-24T11:34:35.826Z,3.90
2018-09-24T11:35:35.803Z,3.50
2018-09-24T11:36:35.784Z,3.50
2018-09-24T11:37:35.853Z,3.70
2018-09-24T11:38:35.756Z,4.10
2018-09-24T11:39:35.776Z,3.30
2018-09-24T11:40:35.741Z,2.30
2018-09-24T11:41:35.742Z,4.40
2018-09-24T11:42:35.759Z,3.90
2018-09-24T11:43:35.723Z,3.90
2018-09-24T11:44:35.721Z,3.40
2018-09-24T11:45:35.707Z,3.40
2018-09-24T11:46:35.697Z,3.90
2018-09-24T11:47:35.666Z,3.80
2018-09-24T11:48:35.653Z,5.30
2018-09-24T11:49:35.650Z,3.10
2018-09-24T11:50:35.645Z,5.30
2018-09-24T11:51:35.614Z,4.50
2018-09-24T11:52:35.602Z,5.50
2018-09-24T11:53:35.597Z,3.90
2018-09-24T11:54:35.586Z,4.00
2018-09-24T11:55:35.596Z,2.90
2018-09-24T11:56:35.568Z,3.90
2018-09-24T11:57:35.555Z,3.50
2018-09-24T11:58:35.540Z,3.70
2018-09-24T11:59:35.532Z,3.70
2018-09-24T12:00:35.541Z,5.10
2018-09-24T12:01:35.512Z,4.70
2018-09-24T12:02:35.498Z,5.40
2018-09-24T12:03:35.520Z,3.10
2018-09-24T12:04:35.473Z,4.40
2018-09-24T12:05:35.481Z,4.50
2018-09-24T12:06:35.456Z,4.40
2018-09-24T12:07:35.599Z,4.20
2018-09-24T12:08:35.446Z,6.00
2018-09-24T12:09:35.422Z,4.50
2018-09-24T12:10:35.487Z,4.70
2018-09-24T12:11:35.405Z,4.20
2018-09-24T12:12:35.422Z,3.40
2018-09-24T12:13:35.380Z,4.10
2018-09-24T12:14:35.372Z,4.70
2018-09-24T12:15:35.360Z,5.30
2018-09-24T12:16:36.988Z,5.00
2018-09-24T12:17:35.357Z,2.80
2018-09-24T12:18:35.331Z,3.20
2018-09-24T12:19:35.320Z,3.40
2018-09-24T12:20:35.309Z,4.20
2018-09-24T12:21:35.318Z,3.50
2018-09-24T12:22:35.291Z,4.00
2018-09-24T12:23:35.312Z,3.10
2018-09-24T12:24:35.311Z,2.90
2018-09-24T12:25:35.247Z,3.50
2018-09-24T12:26:35.248Z,3.70
2018-09-24T12:27:35.232Z,5.00
2018-09-24T12:28:35.239Z,4.00
2018-09-24T12:29:35.211Z,6.10
2018-09-24T12:30:35.195Z,2.90
2018-09-24T12:31:35.187Z,2.80
2018-09-24T12:32:35.199Z,4.00
2018-09-24T12:33:35.164Z,4.60
2018-09-24T12:34:35.150Z,2.90
2018-09-24T12:35:35.136Z,2.60
2018-09-24T12:36:35.127Z,4.20
2018-09-24T12:37:35.138Z,3.30
2018-09-24T12:38:35.110Z,2.50
2018-09-24T12:39:35.107Z,4.30
2018-09-24T12:40:35.090Z,2.10
2018-09-24T12:41:35.096Z,3.00
2018-09-24T12:42:35.084Z,5.40
2018-09-24T12:43:35.053Z,2.20
2018-09-24T12:44:35.042Z,3.50
2018-09-24T12:45:35.061Z,1.50
2018-09-24T12:46:35.051Z,3.60
2018-09-24T12:47:35.014Z,3.30
2018-09-24T12:48:34.998Z,2.90
2018-09-24T12:49:34.996Z,2.30
2018-09-24T12:50:34.982Z,2.20
2018-09-24T12:51:34.971Z,3.90
2018-09-24T12:52:34.983Z,2.40
2018-09-24T12:53:34.947Z,2.40
2018-09-24T12:54:34.946Z,4.60
2018-09-24T12:55:34.921Z,3.50
2018-09-24T12:56:34.911Z,2.60
2018-09-24T12:57:34.909Z,5.40
2018-09-24T12:58:34.924Z,4.10
2018-09-24T12:59:34.892Z,4.60
2018-09-24T13:00:34.892Z,4.10